<?xml version="1.0" encoding="UTF-8" standalone="no" ?>
<gpx xmlns="http://www.topografix.com/GPX/1/1" xmlns:xsi="http://www.w3.org/2001/XMLSchema-instance" xsi:schemaLocation="http://www.topografix.com/GPX/1/1 http://www.topografix.com/GPX/1/1/gpx.xsd" version="1.1" creator="VisuGPX - https://www.visugpx.com">
  <metadata>
    <name>Course à pied dans l'après-midi</name>
  </metadata>
  <trk>
    <name><![CDATA[Course à pied dans l'après-midi_1]]></name>
    <trkseg>
      <trkpt lat="48.71383" lon="7.18922">
        <ele>355.4</ele>
        <time>2024-02-25T14:08:20Z</time>
      </trkpt>
      <trkpt lat="48.71369" lon="7.18939">
        <ele>355.2</ele>
        <time>2024-02-25T14:08:27Z</time>
      </trkpt>
      <trkpt lat="48.71352" lon="7.1896">
        <ele>355.1</ele>
        <time>2024-02-25T14:08:31Z</time>
      </trkpt>
      <trkpt lat="48.71333" lon="7.1898">
        <ele>355.1</ele>
        <time>2024-02-25T14:08:35Z</time>
      </trkpt>
      <trkpt lat="48.71317" lon="7.18996">
        <ele>355.2</ele>
        <time>2024-02-25T14:08:39Z</time>
      </trkpt>
      <trkpt lat="48.71301" lon="7.1901">
        <ele>355.4</ele>
        <time>2024-02-25T14:08:43Z</time>
      </trkpt>
      <trkpt lat="48.71284" lon="7.19024">
        <ele>355.5</ele>
        <time>2024-02-25T14:08:47Z</time>
      </trkpt>
      <trkpt lat="48.71275" lon="7.19027">
        <ele>355.5</ele>
        <time>2024-02-25T14:08:49Z</time>
      </trkpt>
      <trkpt lat="48.71265" lon="7.19024">
        <ele>355.5</ele>
        <time>2024-02-25T14:08:51Z</time>
      </trkpt>
      <trkpt lat="48.71246" lon="7.1901">
        <ele>354.1</ele>
        <time>2024-02-25T14:08:55Z</time>
      </trkpt>
      <trkpt lat="48.71232" lon="7.18999">
        <ele>352.7</ele>
        <time>2024-02-25T14:08:58Z</time>
      </trkpt>
      <trkpt lat="48.71224" lon="7.19001">
        <ele>352.3</ele>
        <time>2024-02-25T14:09:00Z</time>
      </trkpt>
      <trkpt lat="48.71208" lon="7.19014">
        <ele>352.1</ele>
        <time>2024-02-25T14:09:04Z</time>
      </trkpt>
      <trkpt lat="48.71204" lon="7.19018">
        <ele>352.4</ele>
        <time>2024-02-25T14:09:05Z</time>
      </trkpt>
      <trkpt lat="48.7119" lon="7.19036">
        <ele>352.3</ele>
        <time>2024-02-25T14:09:09Z</time>
      </trkpt>
      <trkpt lat="48.71179" lon="7.19047">
        <ele>352.4</ele>
        <time>2024-02-25T14:09:12Z</time>
      </trkpt>
      <trkpt lat="48.7117" lon="7.19051">
        <ele>352.1</ele>
        <time>2024-02-25T14:09:14Z</time>
      </trkpt>
      <trkpt lat="48.71151" lon="7.19056">
        <ele>351.7</ele>
        <time>2024-02-25T14:09:18Z</time>
      </trkpt>
      <trkpt lat="48.71133" lon="7.19065">
        <ele>351.4</ele>
        <time>2024-02-25T14:09:22Z</time>
      </trkpt>
      <trkpt lat="48.7113" lon="7.19068">
        <ele>351.3</ele>
        <time>2024-02-25T14:09:23Z</time>
      </trkpt>
      <trkpt lat="48.71122" lon="7.19082">
        <ele>350.9</ele>
        <time>2024-02-25T14:09:26Z</time>
      </trkpt>
      <trkpt lat="48.71117" lon="7.19099">
        <ele>350.7</ele>
        <time>2024-02-25T14:09:29Z</time>
      </trkpt>
      <trkpt lat="48.71116" lon="7.1911">
        <ele>350.6</ele>
        <time>2024-02-25T14:09:31Z</time>
      </trkpt>
      <trkpt lat="48.71106" lon="7.19138">
        <ele>350.8</ele>
        <time>2024-02-25T14:09:37Z</time>
      </trkpt>
      <trkpt lat="48.71091" lon="7.19158">
        <ele>351</ele>
        <time>2024-02-25T14:09:42Z</time>
      </trkpt>
      <trkpt lat="48.71082" lon="7.19175">
        <ele>350.5</ele>
        <time>2024-02-25T14:09:45Z</time>
      </trkpt>
      <trkpt lat="48.71075" lon="7.19181">
        <ele>350</ele>
        <time>2024-02-25T14:09:47Z</time>
      </trkpt>
      <trkpt lat="48.71066" lon="7.19179">
        <ele>349.2</ele>
        <time>2024-02-25T14:09:50Z</time>
      </trkpt>
      <trkpt lat="48.7106" lon="7.19182">
        <ele>348.7</ele>
        <time>2024-02-25T14:09:52Z</time>
      </trkpt>
      <trkpt lat="48.71054" lon="7.19193">
        <ele>347.8</ele>
        <time>2024-02-25T14:09:54Z</time>
      </trkpt>
      <trkpt lat="48.71053" lon="7.19205">
        <ele>346.9</ele>
        <time>2024-02-25T14:09:56Z</time>
      </trkpt>
      <trkpt lat="48.71056" lon="7.19228">
        <ele>345.5</ele>
        <time>2024-02-25T14:10:00Z</time>
      </trkpt>
      <trkpt lat="48.71059" lon="7.19238">
        <ele>345.3</ele>
        <time>2024-02-25T14:10:02Z</time>
      </trkpt>
      <trkpt lat="48.71072" lon="7.1926">
        <ele>345.6</ele>
        <time>2024-02-25T14:10:07Z</time>
      </trkpt>
      <trkpt lat="48.7109" lon="7.19275">
        <ele>346.6</ele>
        <time>2024-02-25T14:10:12Z</time>
      </trkpt>
      <trkpt lat="48.71108" lon="7.19287">
        <ele>349.3</ele>
        <time>2024-02-25T14:10:17Z</time>
      </trkpt>
      <trkpt lat="48.71126" lon="7.19298">
        <ele>351.5</ele>
        <time>2024-02-25T14:10:21Z</time>
      </trkpt>
      <trkpt lat="48.71142" lon="7.1931">
        <ele>353.5</ele>
        <time>2024-02-25T14:10:25Z</time>
      </trkpt>
      <trkpt lat="48.71154" lon="7.19319">
        <ele>354.8</ele>
        <time>2024-02-25T14:10:28Z</time>
      </trkpt>
      <trkpt lat="48.71171" lon="7.19339">
        <ele>357.2</ele>
        <time>2024-02-25T14:10:33Z</time>
      </trkpt>
      <trkpt lat="48.71182" lon="7.19354">
        <ele>355.9</ele>
        <time>2024-02-25T14:10:36Z</time>
      </trkpt>
      <trkpt lat="48.71191" lon="7.19383">
        <ele>353.4</ele>
        <time>2024-02-25T14:10:40Z</time>
      </trkpt>
      <trkpt lat="48.71193" lon="7.19396">
        <ele>352.5</ele>
        <time>2024-02-25T14:10:42Z</time>
      </trkpt>
      <trkpt lat="48.71196" lon="7.19428">
        <ele>350.8</ele>
        <time>2024-02-25T14:10:47Z</time>
      </trkpt>
      <trkpt lat="48.71196" lon="7.19434">
        <ele>350.6</ele>
        <time>2024-02-25T14:10:48Z</time>
      </trkpt>
      <trkpt lat="48.71198" lon="7.19465">
        <ele>350</ele>
        <time>2024-02-25T14:10:53Z</time>
      </trkpt>
      <trkpt lat="48.71201" lon="7.19497">
        <ele>350.4</ele>
        <time>2024-02-25T14:10:59Z</time>
      </trkpt>
      <trkpt lat="48.71201" lon="7.19525">
        <ele>350.8</ele>
        <time>2024-02-25T14:11:04Z</time>
      </trkpt>
      <trkpt lat="48.71201" lon="7.19553">
        <ele>351</ele>
        <time>2024-02-25T14:11:10Z</time>
      </trkpt>
      <trkpt lat="48.712" lon="7.19585">
        <ele>351.2</ele>
        <time>2024-02-25T14:11:16Z</time>
      </trkpt>
      <trkpt lat="48.712" lon="7.19615">
        <ele>352.1</ele>
        <time>2024-02-25T14:11:21Z</time>
      </trkpt>
      <trkpt lat="48.71197" lon="7.19644">
        <ele>352.3</ele>
        <time>2024-02-25T14:11:26Z</time>
      </trkpt>
      <trkpt lat="48.71194" lon="7.19675">
        <ele>352.5</ele>
        <time>2024-02-25T14:11:32Z</time>
      </trkpt>
      <trkpt lat="48.712" lon="7.19705">
        <ele>354.2</ele>
        <time>2024-02-25T14:11:37Z</time>
      </trkpt>
      <trkpt lat="48.71204" lon="7.19732">
        <ele>356.5</ele>
        <time>2024-02-25T14:11:41Z</time>
      </trkpt>
      <trkpt lat="48.71208" lon="7.19759">
        <ele>358.1</ele>
        <time>2024-02-25T14:11:45Z</time>
      </trkpt>
      <trkpt lat="48.71215" lon="7.19788">
        <ele>359.8</ele>
        <time>2024-02-25T14:11:50Z</time>
      </trkpt>
      <trkpt lat="48.71221" lon="7.19818">
        <ele>360.8</ele>
        <time>2024-02-25T14:11:55Z</time>
      </trkpt>
      <trkpt lat="48.7123" lon="7.19844">
        <ele>361.5</ele>
        <time>2024-02-25T14:12:00Z</time>
      </trkpt>
      <trkpt lat="48.71246" lon="7.19863">
        <ele>361.7</ele>
        <time>2024-02-25T14:12:06Z</time>
      </trkpt>
      <trkpt lat="48.71264" lon="7.19875">
        <ele>361.7</ele>
        <time>2024-02-25T14:12:12Z</time>
      </trkpt>
      <trkpt lat="48.71282" lon="7.19871">
        <ele>363.3</ele>
        <time>2024-02-25T14:12:19Z</time>
      </trkpt>
      <trkpt lat="48.713" lon="7.19874">
        <ele>365</ele>
        <time>2024-02-25T14:12:26Z</time>
      </trkpt>
      <trkpt lat="48.71319" lon="7.1987">
        <ele>366.5</ele>
        <time>2024-02-25T14:12:31Z</time>
      </trkpt>
      <trkpt lat="48.71329" lon="7.19856">
        <ele>367.5</ele>
        <time>2024-02-25T14:12:35Z</time>
      </trkpt>
      <trkpt lat="48.71334" lon="7.19849">
        <ele>368</ele>
        <time>2024-02-25T14:12:37Z</time>
      </trkpt>
      <trkpt lat="48.7135" lon="7.19837">
        <ele>368.9</ele>
        <time>2024-02-25T14:12:43Z</time>
      </trkpt>
      <trkpt lat="48.7136" lon="7.19839">
        <ele>369.7</ele>
        <time>2024-02-25T14:12:46Z</time>
      </trkpt>
      <trkpt lat="48.71376" lon="7.19823">
        <ele>371.1</ele>
        <time>2024-02-25T14:12:51Z</time>
      </trkpt>
      <trkpt lat="48.71386" lon="7.19799">
        <ele>372.2</ele>
        <time>2024-02-25T14:12:56Z</time>
      </trkpt>
      <trkpt lat="48.71395" lon="7.19772">
        <ele>373.7</ele>
        <time>2024-02-25T14:13:01Z</time>
      </trkpt>
      <trkpt lat="48.71402" lon="7.19745">
        <ele>375.1</ele>
        <time>2024-02-25T14:13:06Z</time>
      </trkpt>
      <trkpt lat="48.71414" lon="7.1972">
        <ele>376.3</ele>
        <time>2024-02-25T14:13:11Z</time>
      </trkpt>
      <trkpt lat="48.71426" lon="7.19698">
        <ele>377.4</ele>
        <time>2024-02-25T14:13:16Z</time>
      </trkpt>
      <trkpt lat="48.71438" lon="7.19677">
        <ele>378.5</ele>
        <time>2024-02-25T14:13:21Z</time>
      </trkpt>
      <trkpt lat="48.71439" lon="7.19652">
        <ele>379.1</ele>
        <time>2024-02-25T14:13:26Z</time>
      </trkpt>
      <trkpt lat="48.71426" lon="7.19626">
        <ele>378.3</ele>
        <time>2024-02-25T14:13:31Z</time>
      </trkpt>
      <trkpt lat="48.71414" lon="7.196">
        <ele>377.1</ele>
        <time>2024-02-25T14:13:36Z</time>
      </trkpt>
      <trkpt lat="48.71402" lon="7.19571">
        <ele>376.6</ele>
        <time>2024-02-25T14:13:41Z</time>
      </trkpt>
      <trkpt lat="48.71394" lon="7.1954">
        <ele>376.2</ele>
        <time>2024-02-25T14:13:46Z</time>
      </trkpt>
      <trkpt lat="48.71386" lon="7.19515">
        <ele>375.6</ele>
        <time>2024-02-25T14:13:50Z</time>
      </trkpt>
      <trkpt lat="48.71378" lon="7.1949">
        <ele>374.7</ele>
        <time>2024-02-25T14:13:54Z</time>
      </trkpt>
      <trkpt lat="48.71371" lon="7.19464">
        <ele>374.3</ele>
        <time>2024-02-25T14:13:58Z</time>
      </trkpt>
      <trkpt lat="48.71363" lon="7.19438">
        <ele>373.1</ele>
        <time>2024-02-25T14:14:02Z</time>
      </trkpt>
      <trkpt lat="48.71352" lon="7.1941">
        <ele>371.4</ele>
        <time>2024-02-25T14:14:07Z</time>
      </trkpt>
      <trkpt lat="48.71343" lon="7.19382">
        <ele>370.8</ele>
        <time>2024-02-25T14:14:12Z</time>
      </trkpt>
      <trkpt lat="48.71334" lon="7.19352">
        <ele>369.6</ele>
        <time>2024-02-25T14:14:17Z</time>
      </trkpt>
      <trkpt lat="48.71332" lon="7.19347">
        <ele>369.2</ele>
        <time>2024-02-25T14:14:18Z</time>
      </trkpt>
      <trkpt lat="48.71326" lon="7.19337">
        <ele>368.7</ele>
        <time>2024-02-25T14:14:20Z</time>
      </trkpt>
      <trkpt lat="48.71312" lon="7.19319">
        <ele>368</ele>
        <time>2024-02-25T14:14:24Z</time>
      </trkpt>
      <trkpt lat="48.71296" lon="7.193">
        <ele>366.9</ele>
        <time>2024-02-25T14:14:28Z</time>
      </trkpt>
      <trkpt lat="48.7128" lon="7.19282">
        <ele>366</ele>
        <time>2024-02-25T14:14:32Z</time>
      </trkpt>
      <trkpt lat="48.71265" lon="7.19264">
        <ele>365.1</ele>
        <time>2024-02-25T14:14:36Z</time>
      </trkpt>
      <trkpt lat="48.71251" lon="7.19247">
        <ele>364.8</ele>
        <time>2024-02-25T14:14:40Z</time>
      </trkpt>
      <trkpt lat="48.71234" lon="7.19225">
        <ele>363.9</ele>
        <time>2024-02-25T14:14:45Z</time>
      </trkpt>
      <trkpt lat="48.71228" lon="7.19216">
        <ele>363.5</ele>
        <time>2024-02-25T14:14:47Z</time>
      </trkpt>
      <trkpt lat="48.71225" lon="7.19204">
        <ele>363.3</ele>
        <time>2024-02-25T14:14:49Z</time>
      </trkpt>
      <trkpt lat="48.71227" lon="7.19193">
        <ele>363.3</ele>
        <time>2024-02-25T14:14:51Z</time>
      </trkpt>
      <trkpt lat="48.71234" lon="7.19183">
        <ele>363.5</ele>
        <time>2024-02-25T14:14:53Z</time>
      </trkpt>
      <trkpt lat="48.71248" lon="7.19164">
        <ele>363.7</ele>
        <time>2024-02-25T14:14:57Z</time>
      </trkpt>
      <trkpt lat="48.71258" lon="7.19149">
        <ele>363.6</ele>
        <time>2024-02-25T14:15:00Z</time>
      </trkpt>
      <trkpt lat="48.71265" lon="7.19133">
        <ele>363.4</ele>
        <time>2024-02-25T14:15:03Z</time>
      </trkpt>
      <trkpt lat="48.71276" lon="7.19106">
        <ele>363</ele>
        <time>2024-02-25T14:15:08Z</time>
      </trkpt>
      <trkpt lat="48.71277" lon="7.191">
        <ele>362.8</ele>
        <time>2024-02-25T14:15:09Z</time>
      </trkpt>
      <trkpt lat="48.71278" lon="7.19088">
        <ele>362.2</ele>
        <time>2024-02-25T14:15:11Z</time>
      </trkpt>
      <trkpt lat="48.71275" lon="7.19076">
        <ele>361.5</ele>
        <time>2024-02-25T14:15:13Z</time>
      </trkpt>
      <trkpt lat="48.71272" lon="7.19064">
        <ele>360.7</ele>
        <time>2024-02-25T14:15:15Z</time>
      </trkpt>
      <trkpt lat="48.71276" lon="7.19052">
        <ele>360.4</ele>
        <time>2024-02-25T14:15:17Z</time>
      </trkpt>
      <trkpt lat="48.71292" lon="7.19035">
        <ele>360.2</ele>
        <time>2024-02-25T14:15:21Z</time>
      </trkpt>
      <trkpt lat="48.71309" lon="7.19018">
        <ele>360</ele>
        <time>2024-02-25T14:15:25Z</time>
      </trkpt>
      <trkpt lat="48.71325" lon="7.19003">
        <ele>359.2</ele>
        <time>2024-02-25T14:15:29Z</time>
      </trkpt>
      <trkpt lat="48.7134" lon="7.18987">
        <ele>358.8</ele>
        <time>2024-02-25T14:15:33Z</time>
      </trkpt>
      <trkpt lat="48.71358" lon="7.1897">
        <ele>358.5</ele>
        <time>2024-02-25T14:15:38Z</time>
      </trkpt>
      <trkpt lat="48.71359" lon="7.18962">
        <ele>358.1</ele>
        <time>2024-02-25T14:15:40Z</time>
      </trkpt>
      <trkpt lat="48.71352" lon="7.18956">
        <ele>357.6</ele>
        <time>2024-02-25T14:15:43Z</time>
      </trkpt>
      <trkpt lat="48.71337" lon="7.18972">
        <ele>358.1</ele>
        <time>2024-02-25T14:15:47Z</time>
      </trkpt>
      <trkpt lat="48.71322" lon="7.18988">
        <ele>358.5</ele>
        <time>2024-02-25T14:15:51Z</time>
      </trkpt>
      <trkpt lat="48.71304" lon="7.19004">
        <ele>359</ele>
        <time>2024-02-25T14:15:56Z</time>
      </trkpt>
      <trkpt lat="48.71286" lon="7.19021">
        <ele>359.5</ele>
        <time>2024-02-25T14:16:01Z</time>
      </trkpt>
      <trkpt lat="48.71279" lon="7.19026">
        <ele>359.5</ele>
        <time>2024-02-25T14:16:03Z</time>
      </trkpt>
      <trkpt lat="48.7127" lon="7.19027">
        <ele>359.2</ele>
        <time>2024-02-25T14:16:05Z</time>
      </trkpt>
      <trkpt lat="48.71253" lon="7.19016">
        <ele>357.8</ele>
        <time>2024-02-25T14:16:09Z</time>
      </trkpt>
      <trkpt lat="48.71236" lon="7.19003">
        <ele>355.7</ele>
        <time>2024-02-25T14:16:13Z</time>
      </trkpt>
      <trkpt lat="48.71228" lon="7.19003">
        <ele>355</ele>
        <time>2024-02-25T14:16:15Z</time>
      </trkpt>
      <trkpt lat="48.7122" lon="7.19006">
        <ele>354.5</ele>
        <time>2024-02-25T14:16:17Z</time>
      </trkpt>
      <trkpt lat="48.71201" lon="7.19024">
        <ele>354.2</ele>
        <time>2024-02-25T14:16:22Z</time>
      </trkpt>
      <trkpt lat="48.71187" lon="7.19041">
        <ele>353.7</ele>
        <time>2024-02-25T14:16:26Z</time>
      </trkpt>
      <trkpt lat="48.71179" lon="7.19048">
        <ele>353.5</ele>
        <time>2024-02-25T14:16:28Z</time>
      </trkpt>
      <trkpt lat="48.71161" lon="7.19054">
        <ele>352.5</ele>
        <time>2024-02-25T14:16:32Z</time>
      </trkpt>
      <trkpt lat="48.71144" lon="7.1906">
        <ele>351.9</ele>
        <time>2024-02-25T14:16:36Z</time>
      </trkpt>
      <trkpt lat="48.71136" lon="7.19064">
        <ele>351.4</ele>
        <time>2024-02-25T14:16:38Z</time>
      </trkpt>
      <trkpt lat="48.7113" lon="7.19071">
        <ele>351.2</ele>
        <time>2024-02-25T14:16:40Z</time>
      </trkpt>
      <trkpt lat="48.71122" lon="7.19086">
        <ele>350.8</ele>
        <time>2024-02-25T14:16:43Z</time>
      </trkpt>
      <trkpt lat="48.71118" lon="7.19096">
        <ele>350.7</ele>
        <time>2024-02-25T14:16:45Z</time>
      </trkpt>
      <trkpt lat="48.71112" lon="7.19126">
        <ele>350.6</ele>
        <time>2024-02-25T14:16:51Z</time>
      </trkpt>
      <trkpt lat="48.71108" lon="7.19137">
        <ele>350.8</ele>
        <time>2024-02-25T14:16:53Z</time>
      </trkpt>
      <trkpt lat="48.71103" lon="7.19145">
        <ele>350.9</ele>
        <time>2024-02-25T14:16:55Z</time>
      </trkpt>
      <trkpt lat="48.71095" lon="7.19155">
        <ele>351</ele>
        <time>2024-02-25T14:16:58Z</time>
      </trkpt>
      <trkpt lat="48.7109" lon="7.19166">
        <ele>350.9</ele>
        <time>2024-02-25T14:17:00Z</time>
      </trkpt>
      <trkpt lat="48.71084" lon="7.19176">
        <ele>350.5</ele>
        <time>2024-02-25T14:17:02Z</time>
      </trkpt>
      <trkpt lat="48.71076" lon="7.19182">
        <ele>350</ele>
        <time>2024-02-25T14:17:04Z</time>
      </trkpt>
      <trkpt lat="48.71065" lon="7.19184">
        <ele>349.1</ele>
        <time>2024-02-25T14:17:07Z</time>
      </trkpt>
      <trkpt lat="48.71059" lon="7.19189">
        <ele>348.4</ele>
        <time>2024-02-25T14:17:09Z</time>
      </trkpt>
      <trkpt lat="48.71056" lon="7.19198">
        <ele>347.8</ele>
        <time>2024-02-25T14:17:11Z</time>
      </trkpt>
      <trkpt lat="48.71057" lon="7.19214">
        <ele>346.6</ele>
        <time>2024-02-25T14:17:14Z</time>
      </trkpt>
      <trkpt lat="48.7106" lon="7.19224">
        <ele>345.9</ele>
        <time>2024-02-25T14:17:16Z</time>
      </trkpt>
      <trkpt lat="48.7107" lon="7.19247">
        <ele>345.3</ele>
        <time>2024-02-25T14:17:21Z</time>
      </trkpt>
      <trkpt lat="48.71084" lon="7.19267">
        <ele>345.8</ele>
        <time>2024-02-25T14:17:26Z</time>
      </trkpt>
      <trkpt lat="48.71092" lon="7.19273">
        <ele>346.8</ele>
        <time>2024-02-25T14:17:28Z</time>
      </trkpt>
      <trkpt lat="48.7111" lon="7.19285">
        <ele>349.4</ele>
        <time>2024-02-25T14:17:33Z</time>
      </trkpt>
      <trkpt lat="48.7113" lon="7.193">
        <ele>351.9</ele>
        <time>2024-02-25T14:17:38Z</time>
      </trkpt>
      <trkpt lat="48.71148" lon="7.19311">
        <ele>354</ele>
        <time>2024-02-25T14:17:42Z</time>
      </trkpt>
      <trkpt lat="48.71163" lon="7.19325">
        <ele>355.9</ele>
        <time>2024-02-25T14:17:46Z</time>
      </trkpt>
      <trkpt lat="48.71172" lon="7.19337">
        <ele>357.1</ele>
        <time>2024-02-25T14:17:49Z</time>
      </trkpt>
      <trkpt lat="48.71177" lon="7.19346">
        <ele>356.7</ele>
        <time>2024-02-25T14:17:51Z</time>
      </trkpt>
      <trkpt lat="48.71185" lon="7.19367">
        <ele>354.8</ele>
        <time>2024-02-25T14:17:54Z</time>
      </trkpt>
      <trkpt lat="48.71191" lon="7.19396">
        <ele>352.4</ele>
        <time>2024-02-25T14:17:58Z</time>
      </trkpt>
      <trkpt lat="48.71193" lon="7.19413">
        <ele>351.2</ele>
        <time>2024-02-25T14:18:01Z</time>
      </trkpt>
      <trkpt lat="48.71195" lon="7.19443">
        <ele>350.2</ele>
        <time>2024-02-25T14:18:06Z</time>
      </trkpt>
      <trkpt lat="48.71199" lon="7.19471">
        <ele>350.3</ele>
        <time>2024-02-25T14:18:11Z</time>
      </trkpt>
      <trkpt lat="48.71201" lon="7.19499">
        <ele>350.9</ele>
        <time>2024-02-25T14:18:16Z</time>
      </trkpt>
      <trkpt lat="48.712" lon="7.19529">
        <ele>350.9</ele>
        <time>2024-02-25T14:18:21Z</time>
      </trkpt>
      <trkpt lat="48.712" lon="7.19559">
        <ele>351.2</ele>
        <time>2024-02-25T14:18:26Z</time>
      </trkpt>
      <trkpt lat="48.71199" lon="7.19587">
        <ele>351.7</ele>
        <time>2024-02-25T14:18:31Z</time>
      </trkpt>
      <trkpt lat="48.71199" lon="7.19617">
        <ele>352.6</ele>
        <time>2024-02-25T14:18:36Z</time>
      </trkpt>
      <trkpt lat="48.71198" lon="7.19646">
        <ele>353.2</ele>
        <time>2024-02-25T14:18:41Z</time>
      </trkpt>
      <trkpt lat="48.71199" lon="7.19676">
        <ele>353.6</ele>
        <time>2024-02-25T14:18:47Z</time>
      </trkpt>
      <trkpt lat="48.712" lon="7.19708">
        <ele>355.1</ele>
        <time>2024-02-25T14:18:52Z</time>
      </trkpt>
      <trkpt lat="48.71202" lon="7.19735">
        <ele>357.2</ele>
        <time>2024-02-25T14:18:56Z</time>
      </trkpt>
      <trkpt lat="48.71204" lon="7.19767">
        <ele>359.1</ele>
        <time>2024-02-25T14:19:01Z</time>
      </trkpt>
      <trkpt lat="48.71209" lon="7.19795">
        <ele>360.3</ele>
        <time>2024-02-25T14:19:06Z</time>
      </trkpt>
      <trkpt lat="48.71215" lon="7.19822">
        <ele>361.2</ele>
        <time>2024-02-25T14:19:11Z</time>
      </trkpt>
      <trkpt lat="48.71223" lon="7.19847">
        <ele>361.4</ele>
        <time>2024-02-25T14:19:16Z</time>
      </trkpt>
      <trkpt lat="48.71238" lon="7.19862">
        <ele>362.4</ele>
        <time>2024-02-25T14:19:21Z</time>
      </trkpt>
      <trkpt lat="48.71256" lon="7.1987">
        <ele>362.8</ele>
        <time>2024-02-25T14:19:26Z</time>
      </trkpt>
      <trkpt lat="48.71276" lon="7.19871">
        <ele>363.8</ele>
        <time>2024-02-25T14:19:32Z</time>
      </trkpt>
      <trkpt lat="48.71294" lon="7.19868">
        <ele>365.6</ele>
        <time>2024-02-25T14:19:41Z</time>
      </trkpt>
      <trkpt lat="48.71314" lon="7.19869">
        <ele>367.2</ele>
        <time>2024-02-25T14:19:47Z</time>
      </trkpt>
      <trkpt lat="48.71331" lon="7.19852">
        <ele>368.6</ele>
        <time>2024-02-25T14:19:54Z</time>
      </trkpt>
      <trkpt lat="48.71346" lon="7.19839">
        <ele>369.6</ele>
        <time>2024-02-25T14:20:01Z</time>
      </trkpt>
      <trkpt lat="48.71367" lon="7.19835">
        <ele>370.9</ele>
        <time>2024-02-25T14:20:08Z</time>
      </trkpt>
      <trkpt lat="48.71382" lon="7.19813">
        <ele>371.9</ele>
        <time>2024-02-25T14:20:13Z</time>
      </trkpt>
      <trkpt lat="48.71392" lon="7.19786">
        <ele>373.3</ele>
        <time>2024-02-25T14:20:18Z</time>
      </trkpt>
      <trkpt lat="48.71397" lon="7.19759">
        <ele>374.6</ele>
        <time>2024-02-25T14:20:23Z</time>
      </trkpt>
      <trkpt lat="48.71405" lon="7.19734">
        <ele>375.7</ele>
        <time>2024-02-25T14:20:28Z</time>
      </trkpt>
      <trkpt lat="48.71419" lon="7.19712">
        <ele>376.8</ele>
        <time>2024-02-25T14:20:33Z</time>
      </trkpt>
      <trkpt lat="48.71432" lon="7.1969">
        <ele>377.9</ele>
        <time>2024-02-25T14:20:38Z</time>
      </trkpt>
      <trkpt lat="48.71442" lon="7.19666">
        <ele>379</ele>
        <time>2024-02-25T14:20:43Z</time>
      </trkpt>
      <trkpt lat="48.71442" lon="7.1966">
        <ele>379</ele>
        <time>2024-02-25T14:20:44Z</time>
      </trkpt>
      <trkpt lat="48.7143" lon="7.19633">
        <ele>378.4</ele>
        <time>2024-02-25T14:20:49Z</time>
      </trkpt>
      <trkpt lat="48.71419" lon="7.1961">
        <ele>377.5</ele>
        <time>2024-02-25T14:20:53Z</time>
      </trkpt>
      <trkpt lat="48.71408" lon="7.19587">
        <ele>376.7</ele>
        <time>2024-02-25T14:20:57Z</time>
      </trkpt>
      <trkpt lat="48.71401" lon="7.19569">
        <ele>376.3</ele>
        <time>2024-02-25T14:21:00Z</time>
      </trkpt>
      <trkpt lat="48.71391" lon="7.19539">
        <ele>375.9</ele>
        <time>2024-02-25T14:21:05Z</time>
      </trkpt>
      <trkpt lat="48.71383" lon="7.19514">
        <ele>375.3</ele>
        <time>2024-02-25T14:21:09Z</time>
      </trkpt>
      <trkpt lat="48.71378" lon="7.19495">
        <ele>374.6</ele>
        <time>2024-02-25T14:21:12Z</time>
      </trkpt>
      <trkpt lat="48.7137" lon="7.19469">
        <ele>373.9</ele>
        <time>2024-02-25T14:21:16Z</time>
      </trkpt>
      <trkpt lat="48.71362" lon="7.19438">
        <ele>373</ele>
        <time>2024-02-25T14:21:21Z</time>
      </trkpt>
      <trkpt lat="48.71354" lon="7.19413">
        <ele>371.6</ele>
        <time>2024-02-25T14:21:25Z</time>
      </trkpt>
      <trkpt lat="48.71345" lon="7.19387">
        <ele>370.8</ele>
        <time>2024-02-25T14:21:29Z</time>
      </trkpt>
      <trkpt lat="48.71338" lon="7.19361">
        <ele>370</ele>
        <time>2024-02-25T14:21:33Z</time>
      </trkpt>
      <trkpt lat="48.71332" lon="7.19343">
        <ele>369.1</ele>
        <time>2024-02-25T14:21:36Z</time>
      </trkpt>
      <trkpt lat="48.71316" lon="7.19321">
        <ele>368.1</ele>
        <time>2024-02-25T14:21:41Z</time>
      </trkpt>
      <trkpt lat="48.71302" lon="7.19303">
        <ele>367.1</ele>
        <time>2024-02-25T14:21:45Z</time>
      </trkpt>
      <trkpt lat="48.71286" lon="7.19286">
        <ele>366.3</ele>
        <time>2024-02-25T14:21:49Z</time>
      </trkpt>
      <trkpt lat="48.71269" lon="7.19266">
        <ele>365.2</ele>
        <time>2024-02-25T14:21:54Z</time>
      </trkpt>
      <trkpt lat="48.71251" lon="7.19245">
        <ele>364.7</ele>
        <time>2024-02-25T14:21:59Z</time>
      </trkpt>
      <trkpt lat="48.71234" lon="7.19225">
        <ele>363.8</ele>
        <time>2024-02-25T14:22:04Z</time>
      </trkpt>
      <trkpt lat="48.71226" lon="7.19211">
        <ele>363.2</ele>
        <time>2024-02-25T14:22:07Z</time>
      </trkpt>
      <trkpt lat="48.71227" lon="7.19199">
        <ele>363.3</ele>
        <time>2024-02-25T14:22:09Z</time>
      </trkpt>
      <trkpt lat="48.7124" lon="7.19179">
        <ele>363.5</ele>
        <time>2024-02-25T14:22:13Z</time>
      </trkpt>
      <trkpt lat="48.71256" lon="7.19157">
        <ele>363.7</ele>
        <time>2024-02-25T14:22:18Z</time>
      </trkpt>
      <trkpt lat="48.71265" lon="7.19142">
        <ele>363.6</ele>
        <time>2024-02-25T14:22:21Z</time>
      </trkpt>
      <trkpt lat="48.71269" lon="7.19131">
        <ele>363.4</ele>
        <time>2024-02-25T14:22:23Z</time>
      </trkpt>
      <trkpt lat="48.71277" lon="7.19101">
        <ele>362.7</ele>
        <time>2024-02-25T14:22:28Z</time>
      </trkpt>
      <trkpt lat="48.71278" lon="7.19095">
        <ele>362.6</ele>
        <time>2024-02-25T14:22:29Z</time>
      </trkpt>
      <trkpt lat="48.71278" lon="7.19082">
        <ele>361.9</ele>
        <time>2024-02-25T14:22:31Z</time>
      </trkpt>
      <trkpt lat="48.71272" lon="7.19063">
        <ele>360.7</ele>
        <time>2024-02-25T14:22:34Z</time>
      </trkpt>
      <trkpt lat="48.7128" lon="7.19048">
        <ele>360.3</ele>
        <time>2024-02-25T14:22:37Z</time>
      </trkpt>
      <trkpt lat="48.71296" lon="7.19031">
        <ele>360</ele>
        <time>2024-02-25T14:22:41Z</time>
      </trkpt>
      <trkpt lat="48.71312" lon="7.19016">
        <ele>359.7</ele>
        <time>2024-02-25T14:22:45Z</time>
      </trkpt>
      <trkpt lat="48.71328" lon="7.19002">
        <ele>359.1</ele>
        <time>2024-02-25T14:22:49Z</time>
      </trkpt>
      <trkpt lat="48.71344" lon="7.18987">
        <ele>358.8</ele>
        <time>2024-02-25T14:22:53Z</time>
      </trkpt>
      <trkpt lat="48.71359" lon="7.1897">
        <ele>358.4</ele>
        <time>2024-02-25T14:22:57Z</time>
      </trkpt>
      <trkpt lat="48.71356" lon="7.18956">
        <ele>357.6</ele>
        <time>2024-02-25T14:23:00Z</time>
      </trkpt>
      <trkpt lat="48.71344" lon="7.18961">
        <ele>357.8</ele>
        <time>2024-02-25T14:23:03Z</time>
      </trkpt>
      <trkpt lat="48.71328" lon="7.18979">
        <ele>358.2</ele>
        <time>2024-02-25T14:23:07Z</time>
      </trkpt>
      <trkpt lat="48.71312" lon="7.18994">
        <ele>358.5</ele>
        <time>2024-02-25T14:23:11Z</time>
      </trkpt>
      <trkpt lat="48.71294" lon="7.19011">
        <ele>358.9</ele>
        <time>2024-02-25T14:23:16Z</time>
      </trkpt>
      <trkpt lat="48.71274" lon="7.19024">
        <ele>359.1</ele>
        <time>2024-02-25T14:23:21Z</time>
      </trkpt>
      <trkpt lat="48.71265" lon="7.19023">
        <ele>358.8</ele>
        <time>2024-02-25T14:23:23Z</time>
      </trkpt>
      <trkpt lat="48.71256" lon="7.19019">
        <ele>358.2</ele>
        <time>2024-02-25T14:23:25Z</time>
      </trkpt>
      <trkpt lat="48.71239" lon="7.19004">
        <ele>356.2</ele>
        <time>2024-02-25T14:23:29Z</time>
      </trkpt>
      <trkpt lat="48.71235" lon="7.19002">
        <ele>355.7</ele>
        <time>2024-02-25T14:23:30Z</time>
      </trkpt>
      <trkpt lat="48.71227" lon="7.19001">
        <ele>355</ele>
        <time>2024-02-25T14:23:32Z</time>
      </trkpt>
      <trkpt lat="48.71219" lon="7.19006">
        <ele>354.5</ele>
        <time>2024-02-25T14:23:34Z</time>
      </trkpt>
      <trkpt lat="48.712" lon="7.19024">
        <ele>353.9</ele>
        <time>2024-02-25T14:23:39Z</time>
      </trkpt>
      <trkpt lat="48.71182" lon="7.19044">
        <ele>353.4</ele>
        <time>2024-02-25T14:23:44Z</time>
      </trkpt>
      <trkpt lat="48.71174" lon="7.1905">
        <ele>353.1</ele>
        <time>2024-02-25T14:23:46Z</time>
      </trkpt>
      <trkpt lat="48.71156" lon="7.19056">
        <ele>352.5</ele>
        <time>2024-02-25T14:23:50Z</time>
      </trkpt>
      <trkpt lat="48.71138" lon="7.19064">
        <ele>351.4</ele>
        <time>2024-02-25T14:23:54Z</time>
      </trkpt>
      <trkpt lat="48.71131" lon="7.19069">
        <ele>351.2</ele>
        <time>2024-02-25T14:23:56Z</time>
      </trkpt>
      <trkpt lat="48.71125" lon="7.19077">
        <ele>350.9</ele>
        <time>2024-02-25T14:23:58Z</time>
      </trkpt>
      <trkpt lat="48.7112" lon="7.19086">
        <ele>350.7</ele>
        <time>2024-02-25T14:24:00Z</time>
      </trkpt>
      <trkpt lat="48.71118" lon="7.19095">
        <ele>350.6</ele>
        <time>2024-02-25T14:24:02Z</time>
      </trkpt>
      <trkpt lat="48.71116" lon="7.19109">
        <ele>350.6</ele>
        <time>2024-02-25T14:24:05Z</time>
      </trkpt>
      <trkpt lat="48.71109" lon="7.19135">
        <ele>350.8</ele>
        <time>2024-02-25T14:24:10Z</time>
      </trkpt>
      <trkpt lat="48.71105" lon="7.19142">
        <ele>350.9</ele>
        <time>2024-02-25T14:24:12Z</time>
      </trkpt>
      <trkpt lat="48.71095" lon="7.19155">
        <ele>350.9</ele>
        <time>2024-02-25T14:24:16Z</time>
      </trkpt>
      <trkpt lat="48.71084" lon="7.19174">
        <ele>350.2</ele>
        <time>2024-02-25T14:24:20Z</time>
      </trkpt>
      <trkpt lat="48.71078" lon="7.19178">
        <ele>349.7</ele>
        <time>2024-02-25T14:24:22Z</time>
      </trkpt>
      <trkpt lat="48.71068" lon="7.19177">
        <ele>348.8</ele>
        <time>2024-02-25T14:24:25Z</time>
      </trkpt>
      <trkpt lat="48.71062" lon="7.19183">
        <ele>348.1</ele>
        <time>2024-02-25T14:24:27Z</time>
      </trkpt>
      <trkpt lat="48.71058" lon="7.19191">
        <ele>347.4</ele>
        <time>2024-02-25T14:24:29Z</time>
      </trkpt>
      <trkpt lat="48.71057" lon="7.19203">
        <ele>346.6</ele>
        <time>2024-02-25T14:24:31Z</time>
      </trkpt>
      <trkpt lat="48.71059" lon="7.19217">
        <ele>345.7</ele>
        <time>2024-02-25T14:24:33Z</time>
      </trkpt>
      <trkpt lat="48.71062" lon="7.1923">
        <ele>345.3</ele>
        <time>2024-02-25T14:24:35Z</time>
      </trkpt>
      <trkpt lat="48.71067" lon="7.19245">
        <ele>345.3</ele>
        <time>2024-02-25T14:24:38Z</time>
      </trkpt>
      <trkpt lat="48.71072" lon="7.19254">
        <ele>345.6</ele>
        <time>2024-02-25T14:24:40Z</time>
      </trkpt>
      <trkpt lat="48.71083" lon="7.19268">
        <ele>346.2</ele>
        <time>2024-02-25T14:24:44Z</time>
      </trkpt>
      <trkpt lat="48.71087" lon="7.19275">
        <ele>346.5</ele>
        <time>2024-02-25T14:24:46Z</time>
      </trkpt>
      <trkpt lat="48.71104" lon="7.19289">
        <ele>349.1</ele>
        <time>2024-02-25T14:24:51Z</time>
      </trkpt>
      <trkpt lat="48.7112" lon="7.19302">
        <ele>351.2</ele>
        <time>2024-02-25T14:24:55Z</time>
      </trkpt>
      <trkpt lat="48.71141" lon="7.19315">
        <ele>353.6</ele>
        <time>2024-02-25T14:25:00Z</time>
      </trkpt>
      <trkpt lat="48.71149" lon="7.19322">
        <ele>354.6</ele>
        <time>2024-02-25T14:25:02Z</time>
      </trkpt>
      <trkpt lat="48.71163" lon="7.19338">
        <ele>356.4</ele>
        <time>2024-02-25T14:25:06Z</time>
      </trkpt>
      <trkpt lat="48.71177" lon="7.19362">
        <ele>355.8</ele>
        <time>2024-02-25T14:25:11Z</time>
      </trkpt>
      <trkpt lat="48.7118" lon="7.19369">
        <ele>355.1</ele>
        <time>2024-02-25T14:25:12Z</time>
      </trkpt>
      <trkpt lat="48.71189" lon="7.19397">
        <ele>352.8</ele>
        <time>2024-02-25T14:25:16Z</time>
      </trkpt>
      <trkpt lat="48.71191" lon="7.19409">
        <ele>352</ele>
        <time>2024-02-25T14:25:18Z</time>
      </trkpt>
      <trkpt lat="48.71195" lon="7.19425">
        <ele>351.1</ele>
        <time>2024-02-25T14:25:21Z</time>
      </trkpt>
      <trkpt lat="48.71196" lon="7.19454">
        <ele>350.3</ele>
        <time>2024-02-25T14:25:26Z</time>
      </trkpt>
      <trkpt lat="48.71196" lon="7.19485">
        <ele>349.9</ele>
        <time>2024-02-25T14:25:31Z</time>
      </trkpt>
      <trkpt lat="48.71195" lon="7.19496">
        <ele>349.8</ele>
        <time>2024-02-25T14:25:32Z</time>
      </trkpt>
      <trkpt lat="48.71195" lon="7.19513">
        <ele>349.9</ele>
        <time>2024-02-25T14:25:36Z</time>
      </trkpt>
      <trkpt lat="48.71192" lon="7.1954">
        <ele>350.2</ele>
        <time>2024-02-25T14:25:41Z</time>
      </trkpt>
      <trkpt lat="48.7119" lon="7.19569">
        <ele>350.3</ele>
        <time>2024-02-25T14:25:46Z</time>
      </trkpt>
      <trkpt lat="48.7119" lon="7.19598">
        <ele>351.3</ele>
        <time>2024-02-25T14:25:51Z</time>
      </trkpt>
      <trkpt lat="48.71192" lon="7.19627">
        <ele>352.2</ele>
        <time>2024-02-25T14:25:56Z</time>
      </trkpt>
      <trkpt lat="48.71191" lon="7.19655">
        <ele>352.1</ele>
        <time>2024-02-25T14:26:01Z</time>
      </trkpt>
      <trkpt lat="48.71192" lon="7.19684">
        <ele>353.1</ele>
        <time>2024-02-25T14:26:06Z</time>
      </trkpt>
      <trkpt lat="48.71194" lon="7.19713">
        <ele>354.7</ele>
        <time>2024-02-25T14:26:10Z</time>
      </trkpt>
      <trkpt lat="48.71196" lon="7.19742">
        <ele>356.8</ele>
        <time>2024-02-25T14:26:14Z</time>
      </trkpt>
      <trkpt lat="48.71202" lon="7.19773">
        <ele>359</ele>
        <time>2024-02-25T14:26:19Z</time>
      </trkpt>
      <trkpt lat="48.7121" lon="7.19804">
        <ele>360.3</ele>
        <time>2024-02-25T14:26:24Z</time>
      </trkpt>
      <trkpt lat="48.71211" lon="7.19809">
        <ele>360.5</ele>
        <time>2024-02-25T14:26:25Z</time>
      </trkpt>
      <trkpt lat="48.71215" lon="7.19821">
        <ele>361</ele>
        <time>2024-02-25T14:26:27Z</time>
      </trkpt>
      <trkpt lat="48.71221" lon="7.19842">
        <ele>361.3</ele>
        <time>2024-02-25T14:26:31Z</time>
      </trkpt>
      <trkpt lat="48.71225" lon="7.19852">
        <ele>361.5</ele>
        <time>2024-02-25T14:26:33Z</time>
      </trkpt>
      <trkpt lat="48.71231" lon="7.19859">
        <ele>361.9</ele>
        <time>2024-02-25T14:26:35Z</time>
      </trkpt>
      <trkpt lat="48.7125" lon="7.19871">
        <ele>362.1</ele>
        <time>2024-02-25T14:26:41Z</time>
      </trkpt>
      <trkpt lat="48.71267" lon="7.19878">
        <ele>362.8</ele>
        <time>2024-02-25T14:26:46Z</time>
      </trkpt>
      <trkpt lat="48.71287" lon="7.19872">
        <ele>364.6</ele>
        <time>2024-02-25T14:26:53Z</time>
      </trkpt>
      <trkpt lat="48.71305" lon="7.19876">
        <ele>365.9</ele>
        <time>2024-02-25T14:27:00Z</time>
      </trkpt>
      <trkpt lat="48.71322" lon="7.19861">
        <ele>367.8</ele>
        <time>2024-02-25T14:27:05Z</time>
      </trkpt>
      <trkpt lat="48.71336" lon="7.19842">
        <ele>368.7</ele>
        <time>2024-02-25T14:27:11Z</time>
      </trkpt>
      <trkpt lat="48.71352" lon="7.19835">
        <ele>369.7</ele>
        <time>2024-02-25T14:27:18Z</time>
      </trkpt>
      <trkpt lat="48.7137" lon="7.19829">
        <ele>370.9</ele>
        <time>2024-02-25T14:27:23Z</time>
      </trkpt>
      <trkpt lat="48.71384" lon="7.1981">
        <ele>371.9</ele>
        <time>2024-02-25T14:27:28Z</time>
      </trkpt>
      <trkpt lat="48.71392" lon="7.19783">
        <ele>373.2</ele>
        <time>2024-02-25T14:27:33Z</time>
      </trkpt>
      <trkpt lat="48.714" lon="7.19756">
        <ele>374.7</ele>
        <time>2024-02-25T14:27:38Z</time>
      </trkpt>
      <trkpt lat="48.71409" lon="7.19731">
        <ele>375.9</ele>
        <time>2024-02-25T14:27:43Z</time>
      </trkpt>
      <trkpt lat="48.71423" lon="7.19706">
        <ele>377.1</ele>
        <time>2024-02-25T14:27:49Z</time>
      </trkpt>
      <trkpt lat="48.71435" lon="7.19685">
        <ele>378.1</ele>
        <time>2024-02-25T14:27:54Z</time>
      </trkpt>
      <trkpt lat="48.71442" lon="7.19659">
        <ele>379.1</ele>
        <time>2024-02-25T14:27:59Z</time>
      </trkpt>
      <trkpt lat="48.71431" lon="7.19631">
        <ele>378.5</ele>
        <time>2024-02-25T14:28:04Z</time>
      </trkpt>
      <trkpt lat="48.71421" lon="7.19609">
        <ele>377.4</ele>
        <time>2024-02-25T14:28:08Z</time>
      </trkpt>
      <trkpt lat="48.71408" lon="7.19581">
        <ele>376.6</ele>
        <time>2024-02-25T14:28:13Z</time>
      </trkpt>
      <trkpt lat="48.71399" lon="7.19556">
        <ele>376.3</ele>
        <time>2024-02-25T14:28:17Z</time>
      </trkpt>
      <trkpt lat="48.71392" lon="7.19531">
        <ele>375.8</ele>
        <time>2024-02-25T14:28:21Z</time>
      </trkpt>
      <trkpt lat="48.71384" lon="7.19507">
        <ele>375.2</ele>
        <time>2024-02-25T14:28:25Z</time>
      </trkpt>
      <trkpt lat="48.71375" lon="7.19482">
        <ele>374.3</ele>
        <time>2024-02-25T14:28:29Z</time>
      </trkpt>
      <trkpt lat="48.71367" lon="7.19451">
        <ele>373.4</ele>
        <time>2024-02-25T14:28:34Z</time>
      </trkpt>
      <trkpt lat="48.71356" lon="7.19421">
        <ele>371.8</ele>
        <time>2024-02-25T14:28:39Z</time>
      </trkpt>
      <trkpt lat="48.71348" lon="7.19396">
        <ele>370.9</ele>
        <time>2024-02-25T14:28:43Z</time>
      </trkpt>
      <trkpt lat="48.71342" lon="7.1937">
        <ele>370.3</ele>
        <time>2024-02-25T14:28:47Z</time>
      </trkpt>
      <trkpt lat="48.71332" lon="7.19341">
        <ele>369</ele>
        <time>2024-02-25T14:28:52Z</time>
      </trkpt>
      <trkpt lat="48.71319" lon="7.19321">
        <ele>368.1</ele>
        <time>2024-02-25T14:28:56Z</time>
      </trkpt>
      <trkpt lat="48.71304" lon="7.19301">
        <ele>367.2</ele>
        <time>2024-02-25T14:29:00Z</time>
      </trkpt>
      <trkpt lat="48.713" lon="7.19297">
        <ele>367</ele>
        <time>2024-02-25T14:29:01Z</time>
      </trkpt>
      <trkpt lat="48.71284" lon="7.19281">
        <ele>365.9</ele>
        <time>2024-02-25T14:29:05Z</time>
      </trkpt>
      <trkpt lat="48.71269" lon="7.19264">
        <ele>365.1</ele>
        <time>2024-02-25T14:29:09Z</time>
      </trkpt>
      <trkpt lat="48.71253" lon="7.19247">
        <ele>364.6</ele>
        <time>2024-02-25T14:29:13Z</time>
      </trkpt>
      <trkpt lat="48.71238" lon="7.19232">
        <ele>364</ele>
        <time>2024-02-25T14:29:17Z</time>
      </trkpt>
      <trkpt lat="48.71227" lon="7.19219">
        <ele>363.3</ele>
        <time>2024-02-25T14:29:20Z</time>
      </trkpt>
      <trkpt lat="48.71225" lon="7.19207">
        <ele>363.1</ele>
        <time>2024-02-25T14:29:22Z</time>
      </trkpt>
      <trkpt lat="48.7123" lon="7.19195">
        <ele>363.3</ele>
        <time>2024-02-25T14:29:24Z</time>
      </trkpt>
      <trkpt lat="48.71243" lon="7.19175">
        <ele>363.5</ele>
        <time>2024-02-25T14:29:28Z</time>
      </trkpt>
      <trkpt lat="48.71256" lon="7.19155">
        <ele>363.6</ele>
        <time>2024-02-25T14:29:32Z</time>
      </trkpt>
      <trkpt lat="48.71262" lon="7.19145">
        <ele>363.3</ele>
        <time>2024-02-25T14:29:34Z</time>
      </trkpt>
      <trkpt lat="48.71271" lon="7.1912">
        <ele>363</ele>
        <time>2024-02-25T14:29:38Z</time>
      </trkpt>
      <trkpt lat="48.71277" lon="7.19095">
        <ele>362.3</ele>
        <time>2024-02-25T14:29:42Z</time>
      </trkpt>
      <trkpt lat="48.71277" lon="7.19081">
        <ele>361.6</ele>
        <time>2024-02-25T14:29:44Z</time>
      </trkpt>
      <trkpt lat="48.71272" lon="7.19063">
        <ele>360.5</ele>
        <time>2024-02-25T14:29:47Z</time>
      </trkpt>
      <trkpt lat="48.71279" lon="7.19049">
        <ele>360</ele>
        <time>2024-02-25T14:29:50Z</time>
      </trkpt>
      <trkpt lat="48.71296" lon="7.19033">
        <ele>359.8</ele>
        <time>2024-02-25T14:29:54Z</time>
      </trkpt>
      <trkpt lat="48.71313" lon="7.19015">
        <ele>359.5</ele>
        <time>2024-02-25T14:29:58Z</time>
      </trkpt>
      <trkpt lat="48.7133" lon="7.18999">
        <ele>358.7</ele>
        <time>2024-02-25T14:30:02Z</time>
      </trkpt>
      <trkpt lat="48.71346" lon="7.18983">
        <ele>358.4</ele>
        <time>2024-02-25T14:30:06Z</time>
      </trkpt>
      <trkpt lat="48.7136" lon="7.18969">
        <ele>358.1</ele>
        <time>2024-02-25T14:30:10Z</time>
      </trkpt>
      <trkpt lat="48.71357" lon="7.18955">
        <ele>357.4</ele>
        <time>2024-02-25T14:30:13Z</time>
      </trkpt>
      <trkpt lat="48.7135" lon="7.18955">
        <ele>357.2</ele>
        <time>2024-02-25T14:30:15Z</time>
      </trkpt>
      <trkpt lat="48.71335" lon="7.18972">
        <ele>357.7</ele>
        <time>2024-02-25T14:30:19Z</time>
      </trkpt>
      <trkpt lat="48.7132" lon="7.18988">
        <ele>358.1</ele>
        <time>2024-02-25T14:30:23Z</time>
      </trkpt>
      <trkpt lat="48.71301" lon="7.19005">
        <ele>358.6</ele>
        <time>2024-02-25T14:30:28Z</time>
      </trkpt>
      <trkpt lat="48.71283" lon="7.19022">
        <ele>359.1</ele>
        <time>2024-02-25T14:30:33Z</time>
      </trkpt>
      <trkpt lat="48.71275" lon="7.19026">
        <ele>359.1</ele>
        <time>2024-02-25T14:30:35Z</time>
      </trkpt>
      <trkpt lat="48.71266" lon="7.19024">
        <ele>358.6</ele>
        <time>2024-02-25T14:30:37Z</time>
      </trkpt>
      <trkpt lat="48.71248" lon="7.19013">
        <ele>357.1</ele>
        <time>2024-02-25T14:30:41Z</time>
      </trkpt>
      <trkpt lat="48.71244" lon="7.1901">
        <ele>356.6</ele>
        <time>2024-02-25T14:30:42Z</time>
      </trkpt>
      <trkpt lat="48.71235" lon="7.19003">
        <ele>355.3</ele>
        <time>2024-02-25T14:30:44Z</time>
      </trkpt>
      <trkpt lat="48.71227" lon="7.19002">
        <ele>354.7</ele>
        <time>2024-02-25T14:30:46Z</time>
      </trkpt>
      <trkpt lat="48.71219" lon="7.19006">
        <ele>354.2</ele>
        <time>2024-02-25T14:30:48Z</time>
      </trkpt>
      <trkpt lat="48.71201" lon="7.19023">
        <ele>353.9</ele>
        <time>2024-02-25T14:30:53Z</time>
      </trkpt>
      <trkpt lat="48.71183" lon="7.19043">
        <ele>353.1</ele>
        <time>2024-02-25T14:30:58Z</time>
      </trkpt>
      <trkpt lat="48.71172" lon="7.19051">
        <ele>352.5</ele>
        <time>2024-02-25T14:31:01Z</time>
      </trkpt>
      <trkpt lat="48.71153" lon="7.19057">
        <ele>352</ele>
        <time>2024-02-25T14:31:05Z</time>
      </trkpt>
      <trkpt lat="48.71135" lon="7.19066">
        <ele>351.4</ele>
        <time>2024-02-25T14:31:09Z</time>
      </trkpt>
      <trkpt lat="48.71132" lon="7.19069">
        <ele>351.3</ele>
        <time>2024-02-25T14:31:10Z</time>
      </trkpt>
      <trkpt lat="48.71125" lon="7.19078">
        <ele>351</ele>
        <time>2024-02-25T14:31:12Z</time>
      </trkpt>
      <trkpt lat="48.71118" lon="7.19094">
        <ele>350.7</ele>
        <time>2024-02-25T14:31:15Z</time>
      </trkpt>
      <trkpt lat="48.71115" lon="7.19104">
        <ele>350.6</ele>
        <time>2024-02-25T14:31:17Z</time>
      </trkpt>
      <trkpt lat="48.7111" lon="7.19131">
        <ele>350.7</ele>
        <time>2024-02-25T14:31:22Z</time>
      </trkpt>
      <trkpt lat="48.71105" lon="7.19146">
        <ele>350.9</ele>
        <time>2024-02-25T14:31:25Z</time>
      </trkpt>
      <trkpt lat="48.71101" lon="7.19153">
        <ele>351</ele>
        <time>2024-02-25T14:31:27Z</time>
      </trkpt>
      <trkpt lat="48.71095" lon="7.19161">
        <ele>350.9</ele>
        <time>2024-02-25T14:31:30Z</time>
      </trkpt>
      <trkpt lat="48.71087" lon="7.19175">
        <ele>350.6</ele>
        <time>2024-02-25T14:31:33Z</time>
      </trkpt>
      <trkpt lat="48.71081" lon="7.19183">
        <ele>350.1</ele>
        <time>2024-02-25T14:31:35Z</time>
      </trkpt>
      <trkpt lat="48.71074" lon="7.19182">
        <ele>349.5</ele>
        <time>2024-02-25T14:31:37Z</time>
      </trkpt>
      <trkpt lat="48.71065" lon="7.19183">
        <ele>348.8</ele>
        <time>2024-02-25T14:31:39Z</time>
      </trkpt>
      <trkpt lat="48.71058" lon="7.19191">
        <ele>347.9</ele>
        <time>2024-02-25T14:31:41Z</time>
      </trkpt>
      <trkpt lat="48.71055" lon="7.192">
        <ele>347.2</ele>
        <time>2024-02-25T14:31:43Z</time>
      </trkpt>
      <trkpt lat="48.71055" lon="7.19211">
        <ele>346.4</ele>
        <time>2024-02-25T14:31:45Z</time>
      </trkpt>
      <trkpt lat="48.71058" lon="7.19224">
        <ele>345.7</ele>
        <time>2024-02-25T14:31:47Z</time>
      </trkpt>
      <trkpt lat="48.7106" lon="7.19236">
        <ele>345.3</ele>
        <time>2024-02-25T14:31:49Z</time>
      </trkpt>
      <trkpt lat="48.71064" lon="7.19244">
        <ele>345.3</ele>
        <time>2024-02-25T14:31:51Z</time>
      </trkpt>
      <trkpt lat="48.71074" lon="7.19261">
        <ele>345.6</ele>
        <time>2024-02-25T14:31:55Z</time>
      </trkpt>
      <trkpt lat="48.7109" lon="7.19275">
        <ele>346.6</ele>
        <time>2024-02-25T14:32:00Z</time>
      </trkpt>
      <trkpt lat="48.71109" lon="7.19287">
        <ele>349.4</ele>
        <time>2024-02-25T14:32:05Z</time>
      </trkpt>
      <trkpt lat="48.71126" lon="7.19302">
        <ele>351.7</ele>
        <time>2024-02-25T14:32:10Z</time>
      </trkpt>
      <trkpt lat="48.71145" lon="7.19316">
        <ele>354</ele>
        <time>2024-02-25T14:32:15Z</time>
      </trkpt>
      <trkpt lat="48.71158" lon="7.1933">
        <ele>355.7</ele>
        <time>2024-02-25T14:32:19Z</time>
      </trkpt>
      <trkpt lat="48.71171" lon="7.1935">
        <ele>357.1</ele>
        <time>2024-02-25T14:32:23Z</time>
      </trkpt>
      <trkpt lat="48.71183" lon="7.19374">
        <ele>354.6</ele>
        <time>2024-02-25T14:32:27Z</time>
      </trkpt>
      <trkpt lat="48.71186" lon="7.19386">
        <ele>353.5</ele>
        <time>2024-02-25T14:32:29Z</time>
      </trkpt>
      <trkpt lat="48.7119" lon="7.19416">
        <ele>351.4</ele>
        <time>2024-02-25T14:32:34Z</time>
      </trkpt>
      <trkpt lat="48.71192" lon="7.19435">
        <ele>350.5</ele>
        <time>2024-02-25T14:32:37Z</time>
      </trkpt>
      <trkpt lat="48.71193" lon="7.19452">
        <ele>350.2</ele>
        <time>2024-02-25T14:32:40Z</time>
      </trkpt>
      <trkpt lat="48.71193" lon="7.19477">
        <ele>349.9</ele>
        <time>2024-02-25T14:32:44Z</time>
      </trkpt>
      <trkpt lat="48.7119" lon="7.19508">
        <ele>350.6</ele>
        <time>2024-02-25T14:32:49Z</time>
      </trkpt>
      <trkpt lat="48.71188" lon="7.19537">
        <ele>350.5</ele>
        <time>2024-02-25T14:32:54Z</time>
      </trkpt>
      <trkpt lat="48.71189" lon="7.1957">
        <ele>351.2</ele>
        <time>2024-02-25T14:33:00Z</time>
      </trkpt>
      <trkpt lat="48.7119" lon="7.19599">
        <ele>352.5</ele>
        <time>2024-02-25T14:33:05Z</time>
      </trkpt>
      <trkpt lat="48.71191" lon="7.19628">
        <ele>353.1</ele>
        <time>2024-02-25T14:33:10Z</time>
      </trkpt>
      <trkpt lat="48.71188" lon="7.19656">
        <ele>353.1</ele>
        <time>2024-02-25T14:33:15Z</time>
      </trkpt>
      <trkpt lat="48.7119" lon="7.19688">
        <ele>354.5</ele>
        <time>2024-02-25T14:33:21Z</time>
      </trkpt>
      <trkpt lat="48.71192" lon="7.19719">
        <ele>356.1</ele>
        <time>2024-02-25T14:33:26Z</time>
      </trkpt>
      <trkpt lat="48.71194" lon="7.19751">
        <ele>358.5</ele>
        <time>2024-02-25T14:33:31Z</time>
      </trkpt>
      <trkpt lat="48.71202" lon="7.19781">
        <ele>360.4</ele>
        <time>2024-02-25T14:33:36Z</time>
      </trkpt>
      <trkpt lat="48.7121" lon="7.19813">
        <ele>361.5</ele>
        <time>2024-02-25T14:33:41Z</time>
      </trkpt>
      <trkpt lat="48.71218" lon="7.19841">
        <ele>361.8</ele>
        <time>2024-02-25T14:33:46Z</time>
      </trkpt>
      <trkpt lat="48.71236" lon="7.19861">
        <ele>362.8</ele>
        <time>2024-02-25T14:33:51Z</time>
      </trkpt>
      <trkpt lat="48.71256" lon="7.19872">
        <ele>363</ele>
        <time>2024-02-25T14:33:57Z</time>
      </trkpt>
      <trkpt lat="48.71277" lon="7.19874">
        <ele>364.2</ele>
        <time>2024-02-25T14:34:03Z</time>
      </trkpt>
      <trkpt lat="48.71295" lon="7.1987">
        <ele>366</ele>
        <time>2024-02-25T14:34:11Z</time>
      </trkpt>
      <trkpt lat="48.71314" lon="7.19867">
        <ele>367.6</ele>
        <time>2024-02-25T14:34:18Z</time>
      </trkpt>
      <trkpt lat="48.71328" lon="7.1985">
        <ele>368.8</ele>
        <time>2024-02-25T14:34:23Z</time>
      </trkpt>
      <trkpt lat="48.71344" lon="7.19834">
        <ele>369.6</ele>
        <time>2024-02-25T14:34:30Z</time>
      </trkpt>
      <trkpt lat="48.71364" lon="7.19832">
        <ele>370.9</ele>
        <time>2024-02-25T14:34:37Z</time>
      </trkpt>
      <trkpt lat="48.7138" lon="7.1981">
        <ele>372</ele>
        <time>2024-02-25T14:34:42Z</time>
      </trkpt>
      <trkpt lat="48.71383" lon="7.19805">
        <ele>372.3</ele>
        <time>2024-02-25T14:34:43Z</time>
      </trkpt>
      <trkpt lat="48.71392" lon="7.19777">
        <ele>373.7</ele>
        <time>2024-02-25T14:34:48Z</time>
      </trkpt>
      <trkpt lat="48.714" lon="7.19748">
        <ele>375.2</ele>
        <time>2024-02-25T14:34:53Z</time>
      </trkpt>
      <trkpt lat="48.71402" lon="7.19743">
        <ele>375.4</ele>
        <time>2024-02-25T14:34:54Z</time>
      </trkpt>
      <trkpt lat="48.71415" lon="7.19719">
        <ele>376.6</ele>
        <time>2024-02-25T14:34:59Z</time>
      </trkpt>
      <trkpt lat="48.71427" lon="7.19697">
        <ele>377.6</ele>
        <time>2024-02-25T14:35:04Z</time>
      </trkpt>
      <trkpt lat="48.7144" lon="7.19674">
        <ele>378.7</ele>
        <time>2024-02-25T14:35:09Z</time>
      </trkpt>
      <trkpt lat="48.71443" lon="7.19669">
        <ele>378.8</ele>
        <time>2024-02-25T14:35:10Z</time>
      </trkpt>
      <trkpt lat="48.71443" lon="7.19659">
        <ele>379.1</ele>
        <time>2024-02-25T14:35:12Z</time>
      </trkpt>
      <trkpt lat="48.71439" lon="7.19647">
        <ele>379.2</ele>
        <time>2024-02-25T14:35:14Z</time>
      </trkpt>
      <trkpt lat="48.71426" lon="7.19621">
        <ele>378.2</ele>
        <time>2024-02-25T14:35:19Z</time>
      </trkpt>
      <trkpt lat="48.71413" lon="7.19594">
        <ele>377</ele>
        <time>2024-02-25T14:35:24Z</time>
      </trkpt>
      <trkpt lat="48.71401" lon="7.19567">
        <ele>376.4</ele>
        <time>2024-02-25T14:35:29Z</time>
      </trkpt>
      <trkpt lat="48.71392" lon="7.19536">
        <ele>376</ele>
        <time>2024-02-25T14:35:34Z</time>
      </trkpt>
      <trkpt lat="48.71384" lon="7.19511">
        <ele>375.4</ele>
        <time>2024-02-25T14:35:38Z</time>
      </trkpt>
      <trkpt lat="48.71378" lon="7.19485">
        <ele>374.7</ele>
        <time>2024-02-25T14:35:42Z</time>
      </trkpt>
      <trkpt lat="48.7137" lon="7.19459">
        <ele>373.9</ele>
        <time>2024-02-25T14:35:46Z</time>
      </trkpt>
      <trkpt lat="48.71362" lon="7.19433">
        <ele>372.7</ele>
        <time>2024-02-25T14:35:50Z</time>
      </trkpt>
      <trkpt lat="48.71354" lon="7.19405">
        <ele>371.6</ele>
        <time>2024-02-25T14:35:54Z</time>
      </trkpt>
      <trkpt lat="48.71346" lon="7.19379">
        <ele>371</ele>
        <time>2024-02-25T14:35:58Z</time>
      </trkpt>
      <trkpt lat="48.71344" lon="7.19373">
        <ele>370.8</ele>
        <time>2024-02-25T14:35:59Z</time>
      </trkpt>
      <trkpt lat="48.71337" lon="7.19347">
        <ele>369.8</ele>
        <time>2024-02-25T14:36:03Z</time>
      </trkpt>
      <trkpt lat="48.71335" lon="7.19342">
        <ele>369.4</ele>
        <time>2024-02-25T14:36:04Z</time>
      </trkpt>
      <trkpt lat="48.71329" lon="7.19332">
        <ele>368.9</ele>
        <time>2024-02-25T14:36:06Z</time>
      </trkpt>
      <trkpt lat="48.71315" lon="7.19314">
        <ele>368.1</ele>
        <time>2024-02-25T14:36:10Z</time>
      </trkpt>
      <trkpt lat="48.713" lon="7.19297">
        <ele>367.1</ele>
        <time>2024-02-25T14:36:14Z</time>
      </trkpt>
      <trkpt lat="48.71284" lon="7.19281">
        <ele>366.1</ele>
        <time>2024-02-25T14:36:18Z</time>
      </trkpt>
      <trkpt lat="48.71268" lon="7.19265">
        <ele>365.1</ele>
        <time>2024-02-25T14:36:22Z</time>
      </trkpt>
      <trkpt lat="48.71253" lon="7.19249">
        <ele>364.8</ele>
        <time>2024-02-25T14:36:26Z</time>
      </trkpt>
      <trkpt lat="48.71238" lon="7.19232">
        <ele>364.1</ele>
        <time>2024-02-25T14:36:30Z</time>
      </trkpt>
      <trkpt lat="48.71225" lon="7.19215">
        <ele>363.2</ele>
        <time>2024-02-25T14:36:34Z</time>
      </trkpt>
      <trkpt lat="48.71226" lon="7.19203">
        <ele>363.3</ele>
        <time>2024-02-25T14:36:36Z</time>
      </trkpt>
      <trkpt lat="48.71232" lon="7.19192">
        <ele>363.5</ele>
        <time>2024-02-25T14:36:38Z</time>
      </trkpt>
      <trkpt lat="48.71246" lon="7.19171">
        <ele>363.7</ele>
        <time>2024-02-25T14:36:42Z</time>
      </trkpt>
      <trkpt lat="48.7126" lon="7.19151">
        <ele>363.6</ele>
        <time>2024-02-25T14:36:46Z</time>
      </trkpt>
      <trkpt lat="48.71263" lon="7.19145">
        <ele>363.4</ele>
        <time>2024-02-25T14:36:47Z</time>
      </trkpt>
      <trkpt lat="48.71271" lon="7.19119">
        <ele>363</ele>
        <time>2024-02-25T14:36:51Z</time>
      </trkpt>
      <trkpt lat="48.71276" lon="7.191">
        <ele>362.6</ele>
        <time>2024-02-25T14:36:54Z</time>
      </trkpt>
      <trkpt lat="48.71277" lon="7.19086">
        <ele>362.1</ele>
        <time>2024-02-25T14:36:56Z</time>
      </trkpt>
      <trkpt lat="48.71274" lon="7.19074">
        <ele>361.3</ele>
        <time>2024-02-25T14:36:58Z</time>
      </trkpt>
      <trkpt lat="48.71272" lon="7.19061">
        <ele>360.6</ele>
        <time>2024-02-25T14:37:00Z</time>
      </trkpt>
      <trkpt lat="48.71276" lon="7.19051">
        <ele>360</ele>
        <time>2024-02-25T14:37:02Z</time>
      </trkpt>
      <trkpt lat="48.71284" lon="7.19042">
        <ele>360.1</ele>
        <time>2024-02-25T14:37:04Z</time>
      </trkpt>
      <trkpt lat="48.71302" lon="7.19027">
        <ele>359.9</ele>
        <time>2024-02-25T14:37:08Z</time>
      </trkpt>
      <trkpt lat="48.71319" lon="7.1901">
        <ele>359.4</ele>
        <time>2024-02-25T14:37:12Z</time>
      </trkpt>
      <trkpt lat="48.71336" lon="7.18994">
        <ele>358.6</ele>
        <time>2024-02-25T14:37:16Z</time>
      </trkpt>
      <trkpt lat="48.71352" lon="7.18978">
        <ele>358.3</ele>
        <time>2024-02-25T14:37:20Z</time>
      </trkpt>
      <trkpt lat="48.71361" lon="7.18967">
        <ele>358.2</ele>
        <time>2024-02-25T14:37:23Z</time>
      </trkpt>
      <trkpt lat="48.71362" lon="7.18958">
        <ele>357.9</ele>
        <time>2024-02-25T14:37:25Z</time>
      </trkpt>
      <trkpt lat="48.71368" lon="7.18949">
        <ele>357.7</ele>
        <time>2024-02-25T14:37:27Z</time>
      </trkpt>
      <trkpt lat="48.71385" lon="7.18936">
        <ele>358</ele>
        <time>2024-02-25T14:37:32Z</time>
      </trkpt>
      <trkpt lat="48.71387" lon="7.18935">
        <ele>358</ele>
        <time>2024-02-25T14:37:33Z</time>
      </trkpt>
    </trkseg>
  </trk>
</gpx>